createdAt,value
2023-03-06T00:01:28.641Z,78.42
2023-03-06T00:03:55.403Z,78.41
2023-03-06T00:06:22.441Z,77.91
2023-03-06T00:08:49.242Z,77.99
2023-03-06T00:11:15.969Z,78.12
2023-03-06T00:13:42.681Z,78.50
2023-03-06T00:16:09.623Z,78.22
2023-03-06T00:18:36.475Z,78.57
2023-03-06T00:21:07.392Z,78.54
2023-03-06T00:23:34.299Z,78.52
2023-03-06T00:26:01.167Z,78.34
2023-03-06T00:28:30.931Z,78.12
2023-03-06T00:30:57.668Z,78.13
2023-03-06T00:33:24.419Z,77.87
2023-03-06T00:35:55.156Z,78.10
2023-03-06T00:38:22.153Z,78.05
2023-03-06T00:40:50.061Z,78.22
2023-03-06T00:43:16.804Z,78.39
2023-03-06T00:45:43.578Z,78.45
2023-03-06T00:48:10.351Z,78.74
2023-03-06T00:50:37.640Z,78.70
2023-03-06T00:53:04.423Z,78.79
2023-03-06T00:55:33.015Z,78.89
2023-03-06T00:57:59.917Z,78.71
2023-03-06T01:00:27.361Z,78.96
2023-03-06T01:02:54.116Z,78.91
2023-03-06T01:05:22.151Z,78.99
2023-03-06T01:07:49.054Z,79.11
2023-03-06T01:10:15.860Z,79.14
2023-03-06T01:12:42.797Z,79.02
2023-03-06T01:15:12.967Z,79.09
2023-03-06T01:17:39.960Z,79.10
2023-03-06T01:20:07.840Z,78.97
2023-03-06T01:22:35.649Z,78.74
2023-03-06T01:25:02.377Z,79.04
2023-03-06T01:27:29.130Z,79.43
2023-03-06T01:29:55.999Z,79.31
2023-03-06T01:32:22.920Z,79.54
2023-03-06T01:34:49.895Z,79.59
2023-03-06T01:37:16.901Z,79.76
2023-03-06T01:39:43.743Z,79.75
2023-03-06T01:42:11.920Z,79.91
2023-03-06T01:44:59.130Z,79.78
2023-03-06T01:47:26.134Z,79.81
2023-03-06T01:49:53.516Z,79.69
2023-03-06T01:52:26.066Z,79.92
2023-03-06T01:54:59.616Z,79.76
2023-03-06T01:57:32.607Z,79.65
2023-03-06T02:00:08.324Z,79.18
2023-03-06T02:02:48.194Z,78.62
2023-03-06T02:05:15.153Z,78.95
2023-03-06T02:07:43.183Z,79.37
2023-03-06T02:10:14.865Z,79.76
2023-03-06T02:12:43.766Z,80.01
2023-03-06T02:15:12.738Z,80.21
2023-03-06T02:17:40.451Z,80.55
2023-03-06T02:20:10.756Z,80.68
2023-03-06T02:23:00.329Z,80.83
2023-03-06T02:25:45.401Z,81.23
2023-03-06T02:28:14.978Z,81.61
2023-03-06T02:30:44.177Z,81.65
2023-03-06T02:33:15.003Z,81.72
2023-03-06T02:35:49.846Z,81.86
2023-03-06T02:38:19.623Z,81.96
2023-03-06T02:40:49.651Z,81.97
2023-03-06T02:43:22.273Z,82.26
2023-03-06T02:45:51.274Z,82.44
2023-03-06T02:48:19.948Z,82.59
2023-03-06T02:50:48.425Z,82.95
2023-03-06T02:53:18.100Z,83.15
2023-03-06T02:55:44.994Z,83.36
2023-03-06T02:58:12.366Z,83.29
2023-03-06T03:00:40.261Z,83.32
2023-03-06T03:03:08.956Z,83.35
2023-03-06T03:05:35.700Z,83.39
2023-03-06T03:08:10.249Z,83.41
2023-03-06T03:10:37.146Z,83.41
2023-03-06T03:13:04.012Z,83.32
2023-03-06T03:15:31.007Z,83.15
2023-03-06T03:17:57.749Z,83.14
2023-03-06T03:20:24.548Z,82.95
2023-03-06T03:22:55.002Z,82.56
2023-03-06T03:25:24.331Z,82.64
2023-03-06T03:27:51.815Z,82.44
2023-03-06T03:30:20.161Z,82.60
2023-03-06T03:32:47.058Z,82.28
2023-03-06T03:35:13.826Z,82.17
2023-03-06T03:37:41.519Z,82.46
2023-03-06T03:40:10.377Z,82.39
2023-03-06T03:42:38.458Z,82.18
2023-03-06T03:45:06.083Z,82.34
2023-03-06T03:47:32.910Z,82.03
2023-03-06T03:50:00.228Z,81.99
2023-03-06T03:52:27.335Z,81.97
2023-03-06T03:54:54.734Z,81.65
2023-03-06T03:57:22.349Z,81.44
2023-03-06T03:59:50.887Z,81.39
2023-03-06T04:02:25.550Z,81.17
2023-03-06T04:05:08.349Z,80.91
2023-03-06T04:07:35.506Z,81.01
2023-03-06T04:10:04.139Z,81.18
2023-03-06T04:12:31.084Z,81.13
2023-03-06T04:14:58.206Z,80.98
2023-03-06T04:17:26.035Z,80.88
2023-03-06T04:19:54.294Z,80.69
2023-03-06T04:22:22.232Z,80.65
2023-03-06T04:24:49.996Z,80.67
2023-03-06T04:27:17.561Z,80.62
2023-03-06T04:29:44.856Z,80.33
2023-03-06T04:32:11.858Z,79.90
2023-03-06T04:34:39.443Z,80.19
2023-03-06T04:37:06.378Z,80.53
2023-03-06T04:39:33.185Z,80.50
2023-03-06T04:41:59.882Z,80.32
2023-03-06T04:44:26.894Z,80.26
2023-03-06T04:46:53.752Z,80.16
2023-03-06T04:49:20.836Z,79.88
2023-03-06T04:51:47.621Z,79.39
2023-03-06T04:54:14.376Z,78.82
2023-03-06T04:56:41.107Z,78.60
2023-03-06T04:59:08.233Z,78.33
2023-03-06T05:01:36.326Z,78.48
2023-03-06T05:04:03.690Z,78.65
2023-03-06T05:06:30.449Z,78.90
2023-03-06T05:08:59.543Z,78.99
2023-03-06T05:11:26.341Z,78.95
2023-03-06T05:13:54.338Z,79.08
2023-03-06T05:16:21.340Z,78.52
2023-03-06T05:18:50.511Z,77.91
2023-03-06T05:21:17.744Z,77.85
2023-03-06T05:23:44.593Z,77.96
2023-03-06T05:26:13.539Z,78.53
2023-03-06T05:28:41.419Z,79.08
2023-03-06T05:31:08.393Z,79.82
2023-03-06T05:33:36.489Z,80.36
2023-03-06T05:36:04.337Z,80.94
2023-03-06T05:38:32.330Z,81.32
2023-03-06T05:40:59.144Z,81.47
2023-03-06T05:43:25.876Z,81.99
2023-03-06T05:46:01.490Z,82.02
2023-03-06T05:48:28.349Z,82.18
2023-03-06T05:50:57.246Z,82.14
2023-03-06T05:53:26.955Z,82.18
2023-03-06T05:55:59.244Z,82.28
2023-03-06T05:58:26.885Z,82.45
2023-03-06T06:00:53.932Z,82.36
2023-03-06T06:03:21.179Z,81.98
2023-03-06T06:05:51.674Z,81.89
2023-03-06T06:08:21.275Z,81.96
2023-03-06T06:10:48.001Z,81.81
2023-03-06T06:13:14.959Z,81.47
2023-03-06T06:15:41.728Z,80.96
2023-03-06T06:18:08.533Z,80.89
2023-03-06T06:20:37.583Z,80.66
2023-03-06T06:23:04.720Z,80.41
2023-03-06T06:25:31.914Z,80.50
2023-03-06T06:27:58.614Z,80.18
2023-03-06T06:30:25.457Z,79.95
2023-03-06T06:32:53.227Z,80.25
2023-03-06T06:35:20.179Z,79.48
2023-03-06T06:37:47.000Z,79.11
2023-03-06T06:40:15.049Z,78.71
2023-03-06T06:42:43.340Z,78.16
2023-03-06T06:45:11.339Z,77.94
2023-03-06T06:47:41.625Z,77.75
2023-03-06T06:50:13.182Z,77.35
2023-03-06T06:52:40.173Z,77.08
2023-03-06T06:55:08.236Z,76.88
2023-03-06T06:57:35.137Z,76.51
2023-03-06T07:00:02.384Z,76.38
2023-03-06T07:02:29.146Z,76.13
2023-03-06T07:05:04.058Z,75.98
2023-03-06T07:07:35.705Z,75.74
2023-03-06T07:10:05.622Z,75.36
2023-03-06T07:12:33.035Z,74.69
2023-03-06T07:14:59.791Z,74.38
2023-03-06T07:17:26.559Z,74.25
2023-03-06T07:19:53.315Z,73.90
2023-03-06T07:22:21.318Z,73.67
2023-03-06T07:24:48.130Z,73.72
2023-03-06T07:27:14.877Z,73.57
2023-03-06T07:29:43.709Z,72.99
2023-03-06T07:32:11.450Z,72.91
2023-03-06T07:35:02.724Z,72.14
2023-03-06T07:37:39.877Z,71.46
2023-03-06T07:40:09.600Z,70.78
2023-03-06T07:42:36.440Z,70.47
2023-03-06T07:45:05.138Z,70.13
2023-03-06T07:47:45.690Z,69.04
2023-03-06T07:50:12.905Z,68.52
2023-03-06T07:52:39.777Z,67.81
2023-03-06T07:55:07.134Z,66.77
2023-03-06T07:57:33.878Z,65.62
2023-03-06T08:00:00.754Z,64.76
2023-03-06T08:02:27.551Z,64.46
2023-03-06T08:04:55.488Z,63.91
2023-03-06T08:07:23.000Z,63.63
2023-03-06T08:09:49.894Z,63.81
2023-03-06T08:12:16.767Z,63.81
2023-03-06T08:14:43.562Z,63.66
2023-03-06T08:17:11.470Z,63.82
2023-03-06T08:19:38.500Z,63.93
2023-03-06T08:22:06.667Z,63.99
2023-03-06T08:24:34.682Z,64.12
2023-03-06T08:27:01.401Z,63.80
2023-03-06T08:29:28.184Z,63.51
2023-03-06T08:31:55.038Z,63.31
2023-03-06T08:34:24.427Z,63.00
2023-03-06T08:36:51.561Z,63.22
2023-03-06T08:39:19.203Z,63.10
2023-03-06T08:41:45.962Z,62.55
2023-03-06T08:44:13.039Z,61.93
2023-03-06T08:46:40.354Z,61.71
2023-03-06T08:49:07.525Z,61.72
2023-03-06T08:51:34.409Z,61.79
2023-03-06T08:54:02.441Z,60.85
2023-03-06T08:56:32.311Z,60.15
2023-03-06T08:59:01.786Z,59.90
2023-03-06T09:01:35.684Z,59.46
2023-03-06T09:04:05.594Z,57.77
2023-03-06T09:06:36.290Z,55.49
2023-03-06T09:09:04.072Z,53.83
2023-03-06T09:11:31.284Z,52.56
2023-03-06T09:13:59.841Z,51.60
2023-03-06T09:16:27.466Z,50.69
2023-03-06T09:18:54.482Z,49.36
2023-03-06T09:21:22.689Z,48.19
2023-03-06T09:23:50.008Z,47.16
2023-03-06T09:26:17.673Z,47.18
2023-03-06T09:28:44.437Z,46.53
2023-03-06T09:31:13.885Z,47.25
2023-03-06T09:33:40.907Z,47.31
2023-03-06T09:36:13.834Z,47.30
2023-03-06T09:38:40.635Z,47.15
2023-03-06T09:41:11.784Z,46.39
2023-03-06T09:43:43.603Z,47.21
2023-03-06T09:46:23.826Z,46.95
2023-03-06T09:48:51.823Z,46.86
2023-03-06T09:51:32.764Z,47.42
2023-03-06T09:54:08.413Z,47.66
2023-03-06T09:56:37.055Z,47.48
2023-03-06T09:59:13.440Z,47.04
2023-03-06T10:01:44.980Z,47.77
2023-03-06T10:04:44.046Z,48.63
2023-03-06T10:07:15.781Z,49.07
2023-03-06T10:09:47.654Z,49.24
2023-03-06T10:12:24.825Z,49.07
2023-03-06T10:15:27.158Z,49.41
2023-03-06T10:17:57.207Z,49.98
2023-03-06T10:20:28.750Z,49.77
2023-03-06T10:23:25.164Z,50.07
2023-03-06T10:26:02.332Z,48.62
2023-03-06T10:28:36.505Z,48.90
2023-03-06T10:31:12.357Z,49.17
2023-03-06T10:33:47.505Z,49.00
2023-03-06T10:36:18.861Z,49.00
2023-03-06T10:38:48.775Z,48.63
2023-03-06T10:41:24.371Z,48.57
2023-03-06T10:44:08.097Z,49.14
2023-03-06T10:46:37.544Z,47.53
2023-03-06T10:49:21.923Z,46.57
2023-03-06T10:52:05.495Z,46.50
2023-03-06T10:54:42.591Z,47.33
2023-03-06T10:57:26.558Z,47.69
2023-03-06T10:59:56.014Z,47.83
2023-03-06T11:02:36.807Z,48.53
2023-03-06T11:05:05.586Z,46.51
2023-03-06T11:07:35.233Z,44.98
2023-03-06T11:10:19.958Z,44.29
2023-03-06T11:13:07.694Z,44.18
2023-03-06T11:15:39.914Z,43.79
2023-03-06T11:18:07.668Z,43.07
2023-03-06T11:20:52.634Z,40.97
2023-03-06T11:23:44.380Z,39.82
2023-03-06T11:26:20.368Z,38.63
2023-03-06T11:28:50.001Z,39.14
2023-03-06T11:31:21.501Z,38.82
2023-03-06T11:33:54.308Z,41.22
2023-03-06T11:36:31.509Z,40.41
2023-03-06T11:38:59.945Z,38.94
2023-03-06T11:41:48.697Z,39.54
2023-03-06T11:44:24.695Z,40.57
2023-03-06T11:47:05.930Z,41.82
2023-03-06T11:49:40.733Z,42.54
2023-03-06T11:52:22.214Z,43.26
2023-03-06T11:54:55.010Z,42.72
2023-03-06T11:57:30.856Z,42.52
2023-03-06T12:00:08.373Z,44.01
2023-03-06T12:02:44.268Z,42.57
2023-03-06T12:05:41.773Z,43.35
2023-03-06T12:08:26.663Z,42.90
2023-03-06T12:11:15.101Z,43.87
2023-03-06T12:13:59.447Z,43.81
2023-03-06T12:16:58.697Z,44.01
2023-03-06T12:19:33.198Z,44.15
2023-03-06T12:22:01.333Z,43.70
2023-03-06T12:24:58.191Z,44.89
2023-03-06T12:27:41.204Z,45.13
2023-03-06T12:30:24.517Z,44.88
2023-03-06T12:33:14.482Z,45.54
2023-03-06T12:35:58.364Z,45.40
2023-03-06T12:38:34.769Z,45.78
2023-03-06T12:41:32.106Z,46.15
2023-03-06T12:44:34.948Z,47.25
2023-03-06T12:47:08.959Z,46.40
2023-03-06T12:49:38.845Z,47.05
2023-03-06T12:52:09.782Z,47.19
2023-03-06T12:54:40.339Z,47.49
2023-03-06T12:57:09.405Z,48.74
2023-03-06T12:59:44.164Z,48.19
2023-03-06T13:02:17.810Z,48.81
2023-03-06T13:05:07.341Z,48.44
2023-03-06T13:07:42.357Z,48.79
2023-03-06T13:10:09.496Z,48.97
2023-03-06T13:12:42.095Z,47.91
2023-03-06T13:15:36.388Z,46.90
2023-03-06T13:18:23.150Z,46.42
2023-03-06T13:20:51.570Z,46.88
2023-03-06T13:23:33.837Z,48.20
2023-03-06T13:26:02.092Z,47.70
2023-03-06T13:28:46.225Z,47.73
2023-03-06T13:31:26.638Z,46.62
2023-03-06T13:34:03.016Z,45.21
2023-03-06T13:36:35.882Z,44.60
2023-03-06T13:39:07.141Z,43.77
2023-03-06T13:41:37.644Z,44.07
2023-03-06T13:44:24.640Z,44.21
2023-03-06T13:47:18.726Z,44.43
2023-03-06T13:49:48.795Z,43.55
2023-03-06T13:52:29.586Z,44.19
2023-03-06T13:55:00.961Z,43.68
2023-03-06T13:57:44.450Z,44.00
2023-03-06T14:00:30.043Z,44.67
2023-03-06T14:03:19.506Z,46.37
2023-03-06T14:05:48.375Z,45.90
2023-03-06T14:08:18.944Z,46.92
2023-03-06T14:10:47.612Z,47.30
2023-03-06T14:13:16.021Z,45.85
2023-03-06T14:15:47.653Z,46.77
2023-03-06T14:18:37.214Z,46.79
2023-03-06T14:21:09.090Z,46.94
2023-03-06T14:23:42.609Z,46.80
2023-03-06T14:26:19.311Z,45.87
2023-03-06T14:28:53.387Z,46.56
2023-03-06T14:31:23.011Z,46.78
2023-03-06T14:33:58.408Z,46.09
2023-03-06T14:36:34.988Z,46.01
2023-03-06T14:39:11.601Z,45.62
2023-03-06T14:41:39.573Z,45.95
2023-03-06T14:44:22.054Z,45.40
2023-03-06T14:46:55.184Z,45.64
2023-03-06T14:49:25.421Z,45.38
2023-03-06T14:51:55.377Z,46.19
2023-03-06T14:54:29.212Z,46.37
2023-03-06T14:57:02.503Z,47.37
2023-03-06T14:59:34.235Z,49.56
2023-03-06T15:02:05.719Z,52.20
2023-03-06T15:04:36.694Z,53.42
2023-03-06T15:07:12.111Z,54.16
2023-03-06T15:09:43.784Z,55.13
2023-03-06T15:12:27.824Z,55.67
2023-03-06T15:15:00.762Z,56.30
2023-03-06T15:17:27.703Z,56.96
2023-03-06T15:19:57.905Z,57.47
2023-03-06T15:22:32.392Z,58.06
2023-03-06T15:25:16.029Z,57.30
2023-03-06T15:27:49.427Z,57.25
2023-03-06T15:30:35.746Z,57.45
2023-03-06T15:33:24.206Z,57.49
2023-03-06T15:35:55.120Z,57.81
2023-03-06T15:38:30.202Z,58.25
2023-03-06T15:40:59.612Z,58.42
2023-03-06T15:43:31.904Z,58.07
2023-03-06T15:46:00.892Z,58.09
2023-03-06T15:48:28.536Z,58.19
2023-03-06T15:50:55.465Z,58.90
2023-03-06T15:53:22.224Z,59.10
2023-03-06T15:55:51.721Z,60.94
2023-03-06T15:58:23.553Z,62.98
2023-03-06T16:00:50.962Z,64.95
2023-03-06T16:03:18.069Z,66.44
2023-03-06T16:05:44.861Z,67.49
2023-03-06T16:08:15.073Z,67.99
2023-03-06T16:10:43.935Z,68.61
2023-03-06T16:13:28.080Z,68.83
2023-03-06T16:15:55.206Z,69.22
2023-03-06T16:18:21.911Z,69.29
2023-03-06T16:20:49.467Z,69.16
2023-03-06T16:23:16.584Z,69.29
2023-03-06T16:25:48.691Z,69.49
2023-03-06T16:28:16.494Z,69.77
2023-03-06T16:30:44.900Z,69.92
2023-03-06T16:33:13.070Z,70.43
2023-03-06T16:35:41.278Z,70.72
2023-03-06T16:38:10.204Z,71.03
2023-03-06T16:40:41.297Z,71.42
2023-03-06T16:43:10.392Z,71.49
2023-03-06T16:45:40.823Z,71.76
2023-03-06T16:48:10.584Z,71.90
2023-03-06T16:50:40.912Z,72.16
2023-03-06T16:53:08.310Z,72.54
2023-03-06T16:55:35.094Z,72.67
2023-03-06T16:58:02.122Z,72.77
2023-03-06T17:00:31.920Z,73.06
2023-03-06T17:03:00.147Z,73.14
2023-03-06T17:05:28.771Z,73.15
2023-03-06T17:07:56.410Z,73.59
2023-03-06T17:10:26.408Z,73.60
2023-03-06T17:12:54.044Z,73.30
2023-03-06T17:15:20.974Z,73.14
2023-03-06T17:17:48.580Z,73.36
2023-03-06T17:20:15.477Z,73.64
2023-03-06T17:22:42.290Z,73.68
2023-03-06T17:25:09.809Z,74.00
2023-03-06T17:27:37.508Z,74.46
2023-03-06T17:30:05.438Z,74.42
2023-03-06T17:32:32.961Z,74.81
2023-03-06T17:35:00.166Z,74.90
2023-03-06T17:37:27.104Z,75.43
2023-03-06T17:39:54.043Z,75.77
2023-03-06T17:42:20.768Z,76.14
2023-03-06T17:44:48.056Z,76.48
2023-03-06T17:47:14.830Z,76.71
2023-03-06T17:49:41.709Z,76.69
2023-03-06T17:52:09.375Z,76.97
2023-03-06T17:54:36.376Z,77.06
2023-03-06T17:57:05.417Z,77.16
2023-03-06T17:59:34.493Z,77.20
2023-03-06T18:02:02.214Z,77.09
2023-03-06T18:04:29.471Z,77.45
2023-03-06T18:06:57.193Z,77.43
2023-03-06T18:09:24.625Z,77.58
2023-03-06T18:11:51.658Z,77.56
2023-03-06T18:14:18.633Z,77.70
2023-03-06T18:16:45.400Z,77.81
2023-03-06T18:19:12.365Z,77.49
2023-03-06T18:21:40.142Z,77.66
2023-03-06T18:24:07.418Z,77.81
2023-03-06T18:26:34.168Z,77.77
2023-03-06T18:29:04.608Z,78.14
2023-03-06T18:31:35.412Z,78.44
2023-03-06T18:34:06.630Z,78.53
2023-03-06T18:36:34.448Z,78.91
2023-03-06T18:39:03.945Z,79.22
2023-03-06T18:41:31.701Z,79.63
2023-03-06T18:44:00.537Z,79.42
2023-03-06T18:46:33.315Z,79.81
2023-03-06T18:49:01.242Z,80.11
2023-03-06T18:51:28.788Z,80.34
2023-03-06T18:53:58.272Z,80.28
2023-03-06T18:56:25.295Z,80.39
2023-03-06T18:58:52.924Z,80.23
2023-03-06T19:01:20.805Z,80.43
2023-03-06T19:03:47.612Z,80.84
2023-03-06T19:06:16.968Z,80.91
2023-03-06T19:08:44.267Z,80.85
2023-03-06T19:11:14.917Z,80.90
2023-03-06T19:13:42.490Z,81.01
2023-03-06T19:16:16.016Z,81.02
2023-03-06T19:18:42.747Z,81.16
2023-03-06T19:21:14.352Z,81.23
2023-03-06T19:23:42.337Z,80.84
2023-03-06T19:26:09.746Z,81.20
2023-03-06T19:28:39.011Z,81.21
2023-03-06T19:31:10.485Z,81.17
2023-03-06T19:33:37.937Z,81.07
2023-03-06T19:36:06.661Z,80.78
2023-03-06T19:38:34.036Z,80.99
2023-03-06T19:41:01.039Z,80.52
2023-03-06T19:43:29.070Z,80.60
2023-03-06T19:45:56.942Z,80.85
2023-03-06T19:48:24.149Z,80.47
2023-03-06T19:50:50.861Z,80.53
2023-03-06T19:53:17.773Z,80.99
2023-03-06T19:55:44.507Z,80.85
2023-03-06T19:58:11.938Z,80.72
2023-03-06T20:00:38.732Z,80.68
2023-03-06T20:03:05.676Z,80.50
2023-03-06T20:05:32.782Z,80.76
2023-03-06T20:07:59.659Z,80.57
2023-03-06T20:10:26.438Z,80.64
2023-03-06T20:12:53.191Z,80.20
2023-03-06T20:15:22.171Z,80.21
2023-03-06T20:17:48.971Z,79.86
2023-03-06T20:20:16.127Z,79.73
2023-03-06T20:22:42.968Z,79.66
2023-03-06T20:25:09.970Z,79.22
2023-03-06T20:27:37.129Z,78.90
2023-03-06T20:30:19.322Z,78.89
2023-03-06T20:32:46.047Z,78.77
2023-03-06T20:35:28.533Z,78.64
2023-03-06T20:37:55.486Z,78.08
2023-03-06T20:40:22.187Z,78.09
2023-03-06T20:42:48.976Z,77.91
2023-03-06T20:45:15.857Z,78.06
2023-03-06T20:47:47.208Z,77.97
2023-03-06T20:50:15.746Z,77.74
2023-03-06T20:52:42.528Z,77.77
2023-03-06T20:55:09.477Z,77.81
2023-03-06T20:57:36.245Z,77.86
2023-03-06T21:00:05.068Z,77.44
2023-03-06T21:02:31.916Z,77.19
2023-03-06T21:05:00.798Z,76.63
2023-03-06T21:07:27.608Z,76.56
2023-03-06T21:09:54.475Z,76.50
2023-03-06T21:12:21.228Z,76.36
2023-03-06T21:14:48.016Z,76.22
2023-03-06T21:17:14.817Z,76.35
2023-03-06T21:19:41.780Z,76.32
2023-03-06T21:22:08.812Z,76.13
2023-03-06T21:24:35.737Z,76.10
2023-03-06T21:27:02.456Z,75.96
2023-03-06T21:29:29.899Z,76.40
2023-03-06T21:31:56.789Z,76.25
2023-03-06T21:34:23.519Z,76.12
2023-03-06T21:36:51.241Z,76.09
2023-03-06T21:39:17.988Z,76.40
2023-03-06T21:41:44.697Z,76.43
2023-03-06T21:44:11.530Z,76.36
2023-03-06T21:46:38.248Z,76.41
2023-03-06T21:49:05.268Z,76.64
2023-03-06T21:51:32.599Z,76.78
2023-03-06T21:53:59.373Z,76.87
2023-03-06T21:56:28.451Z,76.95
2023-03-06T21:58:55.951Z,76.93
2023-03-06T22:01:26.286Z,76.85
2023-03-06T22:03:53.289Z,77.33
2023-03-06T22:06:24.238Z,77.25
2023-03-06T22:08:51.466Z,77.36
2023-03-06T22:11:20.668Z,77.74
2023-03-06T22:13:48.504Z,77.64
2023-03-06T22:16:16.920Z,77.65
2023-03-06T22:18:45.783Z,77.65
2023-03-06T22:21:14.900Z,77.77
2023-03-06T22:23:41.842Z,77.41
2023-03-06T22:26:12.630Z,77.55
2023-03-06T22:28:40.635Z,77.44
2023-03-06T22:31:09.836Z,77.45
2023-03-06T22:33:37.064Z,77.34
2023-03-06T22:36:07.247Z,77.45
2023-03-06T22:38:35.705Z,77.30
2023-03-06T22:41:03.818Z,77.59
2023-03-06T22:43:31.170Z,77.19
2023-03-06T22:46:15.204Z,77.49
2023-03-06T22:48:42.636Z,77.38
2023-03-06T22:51:13.609Z,77.72
2023-03-06T22:53:40.590Z,77.69
2023-03-06T22:56:09.865Z,77.57
2023-03-06T22:58:37.475Z,77.55
2023-03-06T23:01:07.508Z,77.40
2023-03-06T23:03:36.188Z,77.86
2023-03-06T23:06:09.114Z,77.90
2023-03-06T23:08:36.084Z,77.73
2023-03-06T23:11:08.505Z,77.65
2023-03-06T23:13:50.811Z,77.78
2023-03-06T23:16:33.254Z,77.93
2023-03-06T23:19:15.646Z,77.63
2023-03-06T23:21:57.703Z,77.60
2023-03-06T23:24:40.031Z,77.64
2023-03-06T23:27:06.878Z,77.33
2023-03-06T23:29:33.575Z,77.38
2023-03-06T23:32:00.343Z,77.17
2023-03-06T23:34:27.153Z,77.32
2023-03-06T23:36:53.865Z,77.12
2023-03-06T23:39:21.662Z,77.32
2023-03-06T23:41:48.507Z,77.50
2023-03-06T23:44:15.220Z,77.28
2023-03-06T23:46:42.585Z,77.62
2023-03-06T23:49:09.309Z,77.06
2023-03-06T23:51:36.041Z,77.41
2023-03-06T23:54:02.841Z,77.18
2023-03-06T23:56:29.634Z,77.35
2023-03-06T23:58:56.422Z,77.23
